createdAt,value
2019-01-18T00:00:37.804Z,26.67
2019-01-18T00:03:06.565Z,26.57
2019-01-18T00:05:35.109Z,26.77
2019-01-18T00:08:03.566Z,26.93
2019-01-18T00:10:32.196Z,27.33
2019-01-18T00:13:00.814Z,29.53
2019-01-18T00:15:29.446Z,27.57
2019-01-18T00:17:57.830Z,28.30
2019-01-18T00:20:26.461Z,27.10
2019-01-18T00:22:55.162Z,27.57
2019-01-18T00:25:23.619Z,27.60
2019-01-18T00:27:52.023Z,27.70
2019-01-18T00:30:22.348Z,27.17
2019-01-18T00:32:50.948Z,27.30
2019-01-18T00:35:19.586Z,27.83
2019-01-18T00:37:48.212Z,28.57
2019-01-18T00:40:21.285Z,28.40
2019-01-18T00:42:49.683Z,28.07
2019-01-18T00:45:19.615Z,26.40
2019-01-18T00:47:48.472Z,27.93
2019-01-18T00:50:18.804Z,27.77
2019-01-18T00:52:47.343Z,26.80
2019-01-18T00:55:15.971Z,26.30
2019-01-18T00:57:44.665Z,28.47
2019-01-18T01:00:16.958Z,25.43
2019-01-18T01:02:45.507Z,27.87
2019-01-18T01:05:14.255Z,26.50
2019-01-18T01:07:42.983Z,28.07
2019-01-18T01:10:12.161Z,26.53
2019-01-18T01:12:40.608Z,26.47
2019-01-18T01:15:15.423Z,27.10
2019-01-18T01:17:44.114Z,26.93
2019-01-18T01:20:14.424Z,26.07
2019-01-18T01:22:42.908Z,25.90
2019-01-18T01:25:12.403Z,28.43
2019-01-18T01:27:41.241Z,27.77
2019-01-18T01:30:26.224Z,27.10
2019-01-18T01:32:55.128Z,26.53
2019-01-18T01:35:23.850Z,25.83
2019-01-18T01:37:52.714Z,26.53
2019-01-18T01:40:26.292Z,26.97
2019-01-18T01:42:54.759Z,25.60
2019-01-18T01:45:23.790Z,26.30
2019-01-18T01:47:52.170Z,27.30
2019-01-18T01:50:23.406Z,27.30
2019-01-18T01:52:51.969Z,27.40
2019-01-18T01:55:20.603Z,27.00
2019-01-18T01:57:49.127Z,26.83
2019-01-18T02:00:20.097Z,27.20
2019-01-18T02:02:48.800Z,27.63
2019-01-18T02:05:17.459Z,27.93
2019-01-18T02:07:46.493Z,26.80
2019-01-18T02:10:17.718Z,29.10
2019-01-18T02:12:46.874Z,28.10
2019-01-18T02:15:17.883Z,26.20
2019-01-18T02:17:46.283Z,27.20
2019-01-18T02:20:17.010Z,26.97
2019-01-18T02:22:45.755Z,27.40
2019-01-18T02:25:14.824Z,28.30
2019-01-18T02:27:45.284Z,28.70
2019-01-18T02:30:19.390Z,27.17
2019-01-18T02:32:47.854Z,28.07
2019-01-18T02:35:16.324Z,28.53
2019-01-18T02:37:45.046Z,28.13
2019-01-18T02:40:14.649Z,28.63
2019-01-18T02:42:43.437Z,30.17
2019-01-18T02:45:15.104Z,30.77
2019-01-18T02:47:43.884Z,28.00
2019-01-18T02:50:13.406Z,29.93
2019-01-18T02:52:41.797Z,29.40
2019-01-18T02:55:11.357Z,29.70
2019-01-18T02:57:40.064Z,29.83
2019-01-18T03:00:14.874Z,31.10
2019-01-18T03:02:43.357Z,29.67
2019-01-18T03:05:13.683Z,31.77
2019-01-18T03:07:42.088Z,30.90
2019-01-18T03:10:19.456Z,30.83
2019-01-18T03:12:47.865Z,29.67
2019-01-18T03:15:16.242Z,30.67
2019-01-18T03:17:45.145Z,30.63
2019-01-18T03:20:15.809Z,30.57
2019-01-18T03:22:44.460Z,30.10
2019-01-18T03:25:24.694Z,30.20
2019-01-18T03:27:53.585Z,30.73
2019-01-18T03:30:21.970Z,30.97
2019-01-18T03:32:50.377Z,29.70
2019-01-18T03:35:23.108Z,30.10
2019-01-18T03:37:52.563Z,29.53
2019-01-18T03:40:21.433Z,32.10
2019-01-18T03:42:50.818Z,30.70
2019-01-18T03:45:20.753Z,30.10
2019-01-18T03:47:49.515Z,30.97
2019-01-18T03:50:22.941Z,29.10
2019-01-18T03:52:51.482Z,30.30
2019-01-18T03:55:20.196Z,31.30
2019-01-18T03:57:48.954Z,28.97
2019-01-18T04:00:26.824Z,29.97
2019-01-18T04:02:55.680Z,30.90
2019-01-18T04:05:24.236Z,30.33
2019-01-18T04:07:52.691Z,29.57
2019-01-18T04:10:22.222Z,29.73
2019-01-18T04:12:50.688Z,28.93
2019-01-18T04:15:24.009Z,30.23
2019-01-18T04:17:52.471Z,29.47
2019-01-18T04:20:22.418Z,30.17
2019-01-18T04:22:51.328Z,30.77
2019-01-18T04:25:24.404Z,30.20
2019-01-18T04:27:52.797Z,28.57
2019-01-18T04:30:23.144Z,30.17
2019-01-18T04:32:51.604Z,31.40
2019-01-18T04:35:20.420Z,30.53
2019-01-18T04:37:48.905Z,30.07
2019-01-18T04:40:25.259Z,30.30
2019-01-18T04:42:53.995Z,29.73
2019-01-18T04:45:23.394Z,29.30
2019-01-18T04:47:52.390Z,29.80
2019-01-18T04:50:23.457Z,29.10
2019-01-18T04:52:51.913Z,31.47
2019-01-18T04:55:20.390Z,29.87
2019-01-18T04:57:48.850Z,31.80
2019-01-18T05:00:20.238Z,30.97
2019-01-18T05:02:48.920Z,31.03
2019-01-18T05:05:17.477Z,29.47
2019-01-18T05:07:46.184Z,29.83
2019-01-18T05:10:17.542Z,29.73
2019-01-18T05:12:46.186Z,29.97
2019-01-18T05:15:17.690Z,31.13
2019-01-18T05:17:46.091Z,31.17
2019-01-18T05:20:14.714Z,30.40
2019-01-18T05:22:43.122Z,30.30
2019-01-18T05:25:15.023Z,30.00
2019-01-18T05:27:43.885Z,29.03
2019-01-18T05:30:15.620Z,29.17
2019-01-18T05:32:44.412Z,27.63
2019-01-18T05:35:13.115Z,31.00
2019-01-18T05:37:41.758Z,29.00
2019-01-18T05:40:19.069Z,29.13
2019-01-18T05:42:48.374Z,30.83
2019-01-18T05:45:19.144Z,30.73
2019-01-18T05:47:47.597Z,31.50
2019-01-18T05:50:18.627Z,30.30
2019-01-18T05:52:47.129Z,30.07
2019-01-18T05:55:15.686Z,29.83
2019-01-18T05:57:44.494Z,30.63
2019-01-18T06:00:23.085Z,28.77
2019-01-18T06:02:51.480Z,28.03
2019-01-18T06:05:20.812Z,26.77
2019-01-18T06:07:49.198Z,27.87
2019-01-18T06:10:17.846Z,29.20
2019-01-18T06:12:46.244Z,31.03
2019-01-18T06:15:15.217Z,30.30
2019-01-18T06:17:43.906Z,32.50
2019-01-18T06:20:14.970Z,29.87
2019-01-18T06:22:43.636Z,29.70
2019-01-18T06:25:12.055Z,29.97
2019-01-18T06:27:40.807Z,29.97
2019-01-18T06:30:19.813Z,30.17
2019-01-18T06:32:48.518Z,28.53
2019-01-18T06:35:17.405Z,29.00
2019-01-18T06:37:45.794Z,29.97
2019-01-18T06:40:20.414Z,29.53
2019-01-18T06:42:48.794Z,27.93
2019-01-18T06:45:19.675Z,28.50
2019-01-18T06:47:48.464Z,28.80
2019-01-18T06:50:18.735Z,29.03
2019-01-18T06:52:47.432Z,27.43
2019-01-18T06:55:15.839Z,28.47
2019-01-18T06:57:44.305Z,29.73
2019-01-18T07:00:27.139Z,29.47
2019-01-18T07:02:55.963Z,33.13
2019-01-18T07:05:24.685Z,30.90
2019-01-18T07:07:53.159Z,31.20
2019-01-18T07:10:23.587Z,30.73
2019-01-18T07:12:51.990Z,29.70
2019-01-18T07:15:21.065Z,30.93
2019-01-18T07:17:49.988Z,30.50
2019-01-18T07:20:20.684Z,31.93
2019-01-18T07:22:49.258Z,32.90
2019-01-18T07:25:25.601Z,33.53
2019-01-18T07:27:54.324Z,34.80
2019-01-18T07:30:34.217Z,34.10
2019-01-18T07:33:02.646Z,31.00
2019-01-18T07:35:31.107Z,30.53
2019-01-18T07:37:59.580Z,30.07
2019-01-18T07:40:27.971Z,29.70
2019-01-18T07:42:56.382Z,30.20
2019-01-18T07:45:27.928Z,33.88
2019-01-18T07:47:56.444Z,31.47
2019-01-18T07:50:24.913Z,33.07
2019-01-18T07:52:53.705Z,34.20
2019-01-18T07:55:22.120Z,30.47
2019-01-18T07:57:50.574Z,32.93
2019-01-18T08:00:24.573Z,33.07
2019-01-18T08:02:53.341Z,34.30
2019-01-18T08:05:23.558Z,38.80
2019-01-18T08:07:52.026Z,38.17
2019-01-18T08:10:22.278Z,39.23
2019-01-18T08:12:50.672Z,38.80
2019-01-18T08:15:24.586Z,38.90
2019-01-18T08:17:53.239Z,39.30
2019-01-18T08:20:24.084Z,41.20
2019-01-18T08:22:53.331Z,41.13
2019-01-18T08:25:21.730Z,40.70
2019-01-18T08:27:50.441Z,40.20
2019-01-18T08:30:21.201Z,41.40
2019-01-18T08:32:49.839Z,42.07
2019-01-18T08:35:19.758Z,40.20
2019-01-18T08:37:48.971Z,41.10
2019-01-18T08:40:32.119Z,40.40
2019-01-18T08:43:00.519Z,39.30
2019-01-18T08:45:37.876Z,39.13
2019-01-18T08:48:07.613Z,37.73
2019-01-18T08:50:36.317Z,39.20
2019-01-18T08:53:04.852Z,38.73
2019-01-18T08:55:33.234Z,38.37
2019-01-18T08:58:01.627Z,38.50
2019-01-18T09:00:31.934Z,37.27
2019-01-18T09:03:00.825Z,34.40
2019-01-18T09:05:30.125Z,35.43
2019-01-18T09:07:58.846Z,34.07
2019-01-18T09:10:35.406Z,40.10
2019-01-18T09:13:03.788Z,35.67
2019-01-18T09:15:32.257Z,36.47
2019-01-18T09:18:00.819Z,35.07
2019-01-18T09:20:31.406Z,35.17
2019-01-18T09:22:59.872Z,35.10
2019-01-18T09:25:28.528Z,34.13
2019-01-18T09:27:57.214Z,37.90
2019-01-18T09:30:30.445Z,33.83
2019-01-18T09:33:00.411Z,35.00
2019-01-18T09:35:29.307Z,34.13
2019-01-18T09:38:00.036Z,35.10
2019-01-18T09:40:35.538Z,37.87
2019-01-18T09:43:06.672Z,35.60
2019-01-18T09:45:35.118Z,34.03
2019-01-18T09:48:05.743Z,36.40
2019-01-18T09:50:34.406Z,34.37
2019-01-18T09:53:05.584Z,37.03
2019-01-18T09:55:34.125Z,34.13
2019-01-18T09:58:02.600Z,34.40
2019-01-18T10:00:33.803Z,32.77
2019-01-18T10:03:02.386Z,33.53
2019-01-18T10:05:31.065Z,33.13
2019-01-18T10:07:59.848Z,33.57
2019-01-18T10:10:28.792Z,35.77
2019-01-18T10:12:57.310Z,35.40
2019-01-18T10:15:34.425Z,37.20
2019-01-18T10:18:02.814Z,37.53
2019-01-18T10:20:31.388Z,37.23
2019-01-18T10:22:59.855Z,36.70
2019-01-18T10:25:28.269Z,38.20
2019-01-18T10:27:56.725Z,38.97
2019-01-18T10:30:26.861Z,36.80
2019-01-18T10:32:55.720Z,38.87
2019-01-18T10:35:25.731Z,36.27
2019-01-18T10:37:54.194Z,39.70
2019-01-18T10:40:22.902Z,40.70
2019-01-18T10:42:51.985Z,39.67
2019-01-18T10:45:21.373Z,39.50
2019-01-18T10:47:50.906Z,34.63
2019-01-18T10:50:22.354Z,41.47
2019-01-18T10:52:50.736Z,39.33
2019-01-18T10:55:19.201Z,40.23
2019-01-18T10:57:47.582Z,39.70
2019-01-18T11:00:20.584Z,43.23
2019-01-18T11:02:49.850Z,43.40
2019-01-18T11:05:18.974Z,47.27
2019-01-18T11:07:47.611Z,41.67
2019-01-18T11:10:16.831Z,43.30
2019-01-18T11:12:45.213Z,40.90
2019-01-18T11:15:19.441Z,39.63
2019-01-18T11:17:48.135Z,40.40
2019-01-18T11:20:25.535Z,41.90
2019-01-18T11:22:55.955Z,39.57
2019-01-18T11:25:24.350Z,37.47
2019-01-18T11:27:52.749Z,40.03
2019-01-18T11:30:21.223Z,36.47
2019-01-18T11:32:49.691Z,38.13
2019-01-18T11:35:18.382Z,34.50
2019-01-18T11:37:47.083Z,36.57
2019-01-18T11:40:20.361Z,34.00
2019-01-18T11:42:49.327Z,34.20
2019-01-18T11:45:17.940Z,37.00
2019-01-18T11:47:46.483Z,36.27
2019-01-18T11:50:20.875Z,35.17
2019-01-18T11:52:49.309Z,34.07
2019-01-18T11:55:18.100Z,33.97
2019-01-18T11:57:46.579Z,34.90
2019-01-18T12:00:23.320Z,33.70
2019-01-18T12:02:52.114Z,33.13
2019-01-18T12:05:20.880Z,33.07
2019-01-18T12:07:49.344Z,31.43
2019-01-18T12:10:20.960Z,33.30
2019-01-18T12:12:49.653Z,33.80
2019-01-18T12:15:18.050Z,32.13
2019-01-18T12:17:46.440Z,33.97
2019-01-18T12:20:26.853Z,34.87
2019-01-18T12:22:55.259Z,34.07
2019-01-18T12:25:23.708Z,35.07
2019-01-18T12:27:52.114Z,34.37
2019-01-18T12:30:23.875Z,32.60
2019-01-18T12:32:52.267Z,32.93
2019-01-18T12:35:20.668Z,31.47
2019-01-18T12:37:50.122Z,32.77
2019-01-18T12:40:18.612Z,33.00
2019-01-18T12:42:47.491Z,29.87
2019-01-18T12:45:18.592Z,30.50
2019-01-18T12:47:47.907Z,31.47
2019-01-18T12:50:19.910Z,30.77
2019-01-18T12:52:48.369Z,31.40
2019-01-18T12:55:16.927Z,30.27
2019-01-18T12:57:45.374Z,30.00
2019-01-18T13:00:16.959Z,29.77
2019-01-18T13:02:45.408Z,29.33
2019-01-18T13:05:17.232Z,31.40
2019-01-18T13:07:46.797Z,29.93
2019-01-18T13:10:15.192Z,28.93
2019-01-18T13:12:43.657Z,28.70
2019-01-18T13:15:18.444Z,28.97
2019-01-18T13:17:47.238Z,27.00
2019-01-18T13:20:15.711Z,28.77
2019-01-18T13:22:44.490Z,27.13
2019-01-18T13:25:15.174Z,29.43
2019-01-18T13:27:44.235Z,28.20
2019-01-18T13:30:18.348Z,28.37
2019-01-18T13:32:47.096Z,28.30
2019-01-18T13:35:15.552Z,28.20
2019-01-18T13:37:44.024Z,27.13
2019-01-18T13:40:15.413Z,27.43
2019-01-18T13:42:43.871Z,29.27
2019-01-18T13:45:13.638Z,27.33
2019-01-18T13:47:43.655Z,27.53
2019-01-18T13:50:16.922Z,26.00
2019-01-18T13:52:45.489Z,25.70
2019-01-18T13:55:19.734Z,26.87
2019-01-18T13:57:48.433Z,27.07
2019-01-18T14:00:17.349Z,25.20
2019-01-18T14:02:48.586Z,25.80
2019-01-18T14:05:16.068Z,26.83
2019-01-18T14:07:44.827Z,27.00
2019-01-18T14:10:25.385Z,27.70
2019-01-18T14:12:54.175Z,28.33
2019-01-18T14:15:24.616Z,27.10
2019-01-18T14:17:53.097Z,27.03
2019-01-18T14:20:27.263Z,27.00
2019-01-18T14:22:56.599Z,26.13
2019-01-18T14:25:25.069Z,29.27
2019-01-18T14:27:54.189Z,25.77
2019-01-18T14:30:27.601Z,26.47
2019-01-18T14:32:56.775Z,28.73
2019-01-18T14:35:25.407Z,27.90
2019-01-18T14:37:54.034Z,27.50
2019-01-18T14:40:23.136Z,27.90
2019-01-18T14:42:55.504Z,25.23
2019-01-18T14:45:33.274Z,27.97
2019-01-18T14:48:02.002Z,26.23
2019-01-18T14:50:30.468Z,25.43
2019-01-18T14:52:58.855Z,27.90
2019-01-18T14:55:27.316Z,26.43
2019-01-18T14:57:56.165Z,25.77
2019-01-18T15:00:28.870Z,26.57
2019-01-18T15:03:02.286Z,26.23
2019-01-18T15:05:27.711Z,26.00
2019-01-18T15:07:56.506Z,27.63
2019-01-18T15:10:25.839Z,25.33
2019-01-18T15:13:05.955Z,26.60
2019-01-18T15:15:34.505Z,26.40
2019-01-18T15:18:03.002Z,26.20
2019-01-18T15:20:32.724Z,26.83
2019-01-18T15:23:01.644Z,25.80
2019-01-18T15:25:30.239Z,26.53
2019-01-18T15:27:58.848Z,28.10
2019-01-18T15:30:29.574Z,27.90
2019-01-18T15:32:58.144Z,26.60
2019-01-18T15:35:34.563Z,26.13
2019-01-18T15:38:08.568Z,26.90
2019-01-18T15:40:40.862Z,26.50
2019-01-18T15:43:10.403Z,26.70
2019-01-18T15:45:38.914Z,27.70
2019-01-18T15:48:07.742Z,27.90
2019-01-18T15:50:38.971Z,27.57
2019-01-18T15:53:07.750Z,26.90
2019-01-18T15:55:36.883Z,27.37
2019-01-18T15:58:06.610Z,27.50
2019-01-18T16:00:40.379Z,27.40
2019-01-18T16:03:15.628Z,24.47
2019-01-18T16:05:39.560Z,26.57
2019-01-18T16:08:08.441Z,27.10
2019-01-18T16:10:36.850Z,26.43
2019-01-18T16:13:05.886Z,26.80
2019-01-18T16:15:37.329Z,25.87
2019-01-18T16:18:08.813Z,24.97
2019-01-18T16:20:37.203Z,25.73
2019-01-18T16:23:06.069Z,24.70
2019-01-18T16:25:34.583Z,26.87
2019-01-18T16:28:03.054Z,23.50
2019-01-18T16:30:33.641Z,23.77
2019-01-18T16:33:02.208Z,23.27
2019-01-18T16:35:30.669Z,24.90
2019-01-18T16:37:59.178Z,24.33
2019-01-18T16:40:33.307Z,24.00
2019-01-18T16:43:08.270Z,23.50
2019-01-18T16:45:36.703Z,23.33
2019-01-18T16:48:05.495Z,24.50
2019-01-18T16:50:34.177Z,23.43
2019-01-18T16:53:02.578Z,22.27
2019-01-18T16:55:31.392Z,23.30
2019-01-18T16:58:00.249Z,22.70
2019-01-18T17:00:31.271Z,23.37
2019-01-18T17:02:59.684Z,23.33
2019-01-18T17:05:28.509Z,24.17
2019-01-18T17:07:57.210Z,23.10
2019-01-18T17:10:25.736Z,24.20
2019-01-18T17:12:54.248Z,22.60
2019-01-18T17:15:22.801Z,23.60
2019-01-18T17:17:51.194Z,22.93
2019-01-18T17:20:31.688Z,23.80
2019-01-18T17:23:00.074Z,23.27
2019-01-18T17:25:28.635Z,23.77
2019-01-18T17:27:57.117Z,24.00
2019-01-18T17:30:25.579Z,24.70
2019-01-18T17:32:54.785Z,21.50
2019-01-18T17:35:47.744Z,25.00
2019-01-18T17:38:22.302Z,24.33
2019-01-18T17:40:53.755Z,22.90
2019-01-18T17:43:27.805Z,24.53
2019-01-18T17:46:08.459Z,23.60
2019-01-18T17:49:03.832Z,21.90
2019-01-18T17:51:35.285Z,23.10
2019-01-18T17:54:18.254Z,22.20
2019-01-18T17:56:58.803Z,22.67
2019-01-18T18:00:03.682Z,21.53
2019-01-18T18:02:47.208Z,22.30
2019-01-18T18:05:27.267Z,23.07
2019-01-18T18:08:19.283Z,23.33
2019-01-18T18:11:07.382Z,23.47
2019-01-18T18:13:43.039Z,23.05
2019-01-18T18:16:51.164Z,21.60
2019-01-18T18:19:50.005Z,20.10
2019-01-18T18:22:27.052Z,21.87
2019-01-18T18:25:19.633Z,22.90
2019-01-18T18:28:13.453Z,21.77
2019-01-18T18:30:47.588Z,21.60
2019-01-18T18:33:50.451Z,21.68
2019-01-18T18:36:22.581Z,23.00
2019-01-18T18:39:20.771Z,22.48
2019-01-18T18:41:57.879Z,22.10
2019-01-18T18:44:59.376Z,21.30
2019-01-18T18:47:31.060Z,21.50
2019-01-18T18:50:29.856Z,22.13
2019-01-18T18:53:04.042Z,21.73
2019-01-18T18:55:47.715Z,23.10
2019-01-18T18:58:19.262Z,21.68
2019-01-18T19:01:02.869Z,23.22
2019-01-18T19:03:57.533Z,21.80
2019-01-18T19:06:53.707Z,22.97
2019-01-18T19:09:33.999Z,22.93
2019-01-18T19:12:14.170Z,22.20
2019-01-18T19:14:54.590Z,23.47
2019-01-18T19:17:37.897Z,22.77
2019-01-18T19:20:21.193Z,21.00
2019-01-18T19:23:01.459Z,23.85
2019-01-18T19:25:41.716Z,23.37
2019-01-18T19:28:22.510Z,21.93
2019-01-18T19:31:22.431Z,22.07
2019-01-18T19:34:04.448Z,22.42
2019-01-18T19:36:54.310Z,23.12
2019-01-18T19:39:47.182Z,23.65
2019-01-18T19:42:33.544Z,22.80
2019-01-18T19:45:14.105Z,23.07
2019-01-18T19:47:45.544Z,23.62
2019-01-18T19:50:25.960Z,23.40
2019-01-18T19:53:14.095Z,23.57
2019-01-18T19:55:48.058Z,25.43
2019-01-18T19:58:37.428Z,22.75
2019-01-18T20:01:11.703Z,23.42
2019-01-18T20:03:57.743Z,22.73
2019-01-18T20:06:31.981Z,22.98
2019-01-18T20:09:05.368Z,23.40
2019-01-18T20:11:39.526Z,23.97
2019-01-18T20:14:11.227Z,24.43
2019-01-18T20:16:54.450Z,23.40
2019-01-18T20:19:28.692Z,22.57
2019-01-18T20:22:12.003Z,22.07
2019-01-18T20:25:14.869Z,24.37
2019-01-18T20:27:49.413Z,23.32
2019-01-18T20:30:43.908Z,23.70
2019-01-18T20:33:22.509Z,23.80
2019-01-18T20:36:06.365Z,23.83
2019-01-18T20:38:57.261Z,24.12
2019-01-18T20:41:46.909Z,24.18
2019-01-18T20:44:34.989Z,24.30
2019-01-18T20:47:18.088Z,23.43
2019-01-18T20:49:49.767Z,22.27
2019-01-18T20:52:39.059Z,22.25
2019-01-18T20:55:28.833Z,24.57
2019-01-18T20:58:15.482Z,24.07
2019-01-18T21:01:08.498Z,23.67
2019-01-18T21:03:56.280Z,24.85
2019-01-18T21:06:27.741Z,24.20
2019-01-18T21:09:15.735Z,22.87
2019-01-18T21:11:47.431Z,23.73
2019-01-18T21:14:33.909Z,24.75
2019-01-18T21:17:26.504Z,24.12
2019-01-18T21:20:15.563Z,24.02
2019-01-18T21:23:01.952Z,24.13
2019-01-18T21:25:48.690Z,24.85
2019-01-18T21:28:35.712Z,23.40
2019-01-18T21:31:19.113Z,23.60
2019-01-18T21:34:07.091Z,24.50
2019-01-18T21:36:59.013Z,22.57
2019-01-18T21:39:36.222Z,24.18
2019-01-18T21:42:13.904Z,24.25
2019-01-18T21:44:51.485Z,22.98
2019-01-18T21:47:38.072Z,24.00
2019-01-18T21:50:26.330Z,23.57
2019-01-18T21:53:06.894Z,23.20
2019-01-18T21:55:44.324Z,23.20
2019-01-18T21:58:24.611Z,24.10
2019-01-18T22:01:08.102Z,22.55
2019-01-18T22:03:42.606Z,22.00
2019-01-18T22:06:32.287Z,22.10
2019-01-18T22:09:09.388Z,21.70
2019-01-18T22:11:46.523Z,22.77
2019-01-18T22:14:24.566Z,21.87
2019-01-18T22:16:58.919Z,21.60
2019-01-18T22:19:36.582Z,22.00
2019-01-18T22:22:36.760Z,21.35
2019-01-18T22:25:32.577Z,21.00
2019-01-18T22:28:18.298Z,20.75
2019-01-18T22:31:14.104Z,21.10
2019-01-18T22:33:51.320Z,21.52
2019-01-18T22:36:28.956Z,21.68
2019-01-18T22:39:21.758Z,21.68
2019-01-18T22:41:56.064Z,22.45
2019-01-18T22:44:48.726Z,21.70
2019-01-18T22:47:29.287Z,22.20
2019-01-18T22:50:01.051Z,21.07
2019-01-18T22:52:35.573Z,21.53
2019-01-18T22:55:25.054Z,22.20
2019-01-18T22:58:13.117Z,20.75
2019-01-18T23:01:15.760Z,20.90
2019-01-18T23:03:57.061Z,22.55
2019-01-18T23:06:57.875Z,21.65
2019-01-18T23:09:47.701Z,20.70
2019-01-18T23:12:45.933Z,21.30
2019-01-18T23:15:29.095Z,21.73
2019-01-18T23:18:16.326Z,21.10
2019-01-18T23:21:13.265Z,21.27
2019-01-18T23:23:54.159Z,20.72
2019-01-18T23:26:48.161Z,23.32
2019-01-18T23:29:31.532Z,20.90
2019-01-18T23:32:12.091Z,21.37
2019-01-18T23:34:52.487Z,20.65
2019-01-18T23:37:38.937Z,22.20
2019-01-18T23:40:46.941Z,22.30
2019-01-18T23:43:39.632Z,21.30
2019-01-18T23:46:42.105Z,20.45
2019-01-18T23:49:17.039Z,20.77
2019-01-18T23:51:48.742Z,22.73
2019-01-18T23:54:20.210Z,22.22
2019-01-18T23:57:06.679Z,21.07
2019-01-18T23:59:38.135Z,21.23
